Latest Weather Observations for Moorabbin Airport

IDV60801

Issued at 9:32 am EST Thursday 30 June 2016 (issued every 30 minutes, with the page automatically refreshed every 10 minutes)

About weather observations | Map of weather stations | Latest weather observations for VIC | Other Formats
Station Details ID: 086077 Name: MOORABBIN AIRPORT Lat: -37.98 Lon: 145.10 Height: 12.1 m
Data from the previous 72 hours. | See also: Recent months at Moorabbin Airport
Date/Time
EST
Temp
°C
App
Temp
°C
Dew
Point
°C
Rel
Hum
%
Delta-T
°C
Wind Press
QNH
hPa
Press
MSL
hPa
Rain since
9am
mm
Dir  Spd
km/h
Gust
km/h
Spd
kts
Gust
kts
30/09:30am 11.1 1.7 4.6 64 2.9 N 43 63 23 34 1010.5 1010.5 0.0
30/09:11am 11.0 1.4 4.5 64 2.9 N 44 63 24 34 1010.4 1010.4 0.0
30/09:00am 11.0 0.7 4.5 64 2.9 N 48 65 26 35 1010.4 1010.4 0.0
30/08:30am 11.0 2.0 4.5 64 2.9 N 41 59 22 32 1010.8 1010.8 0.0
30/08:00am 11.0 0.7 4.5 64 2.9 N 48 80 26 43 1010.8 1010.8 0.0
30/07:30am 11.3 0.9 4.3 62 3.1 N 48 76 26 41 1011.3 1011.3 0.0
30/07:23am 11.5 1.1 4.3 61 3.2 N 48 76 26 41 1011.0 1011.0 0.0
30/07:00am 11.5 3.9 3.8 59 3.4 NNW 33 54 18 29 1012.0 1012.0 0.0
30/06:35am 11.6 3.9 3.6 58 3.5 N 33 54 18 29 1012.1 1012.1 0.0
30/06:30am 11.4 3.8 3.7 59 3.4 N 33 46 18 25 1012.2 1012.2 0.0
30/06:00am 11.4 3.0 3.9 60 3.3 N 37 50 20 27 1012.3 1012.3 0.0
30/05:32am 11.3 2.6 4.1 61 3.2 N 39 59 21 32 1012.5 1012.5 0.0
30/05:30am 11.3 2.6 4.1 61 3.2 N 39 52 21 28 1012.6 1012.6 0.0
30/05:00am 11.4 3.8 3.9 60 3.3 N 33 50 18 27 1013.4 1013.4 0.0
30/04:34am 11.3 3.9 3.8 60 3.3 N 32 52 17 28 1013.5 1013.5 0.0
30/04:30am 11.2 3.7 4.2 62 3.1 N 33 50 18 27 1013.6 1013.6 0.0
30/04:09am 11.0 3.4 4.0 62 3.1 N 33 56 18 30 1013.7 1013.7 0.0
30/04:00am 10.6 3.0 4.1 64 2.9 N 33 44 18 24 1014.1 1014.1 0.0
30/03:49am 10.9 2.6 4.1 63 3.0 N 37 56 20 30 1014.3 1014.3 0.0
30/03:30am 10.6 2.4 4.5 66 2.7 N 37 54 20 29 1014.7 1014.7 0.0
30/03:14am 10.7 3.2 4.6 66 2.7 NNW 33 52 18 28 1015.4 1015.4 0.0
30/03:00am 10.4 3.2 4.8 68 2.5 NNW 32 48 17 26 1015.9 1015.9 0.0
30/02:30am 10.9 3.5 5.2 68 2.6 NNW 33 54 18 29 1016.3 1016.3 0.0
30/02:01am 11.3 3.6 5.2 66 2.8 NNW 35 56 19 30 1016.7 1016.7 0.0
30/02:00am 11.4 3.7 5.3 66 2.8 NNW 35 48 19 26 1016.7 1016.7 0.0
30/01:35am 11.6 5.2 5.0 64 3.0 NNW 28 46 15 25 1016.9 1016.9 0.0
30/01:30am 11.6 4.4 5.0 64 3.0 NNW 32 46 17 25 1016.8 1016.8 0.0
30/01:09am 11.3 4.2 5.4 67 2.7 N 32 54 17 29 1016.8 1016.8 0.0
30/01:00am 11.1 4.7 5.4 68 2.6 N 28 43 15 23 1017.3 1017.3 0.0
30/12:30am 11.2 4.5 5.7 69 2.5 N 30 43 16 23 1018.0 1018.0 0.0
30/12:00am 11.5 5.2 5.8 68 2.6 NNW 28 44 15 24 1018.6 1018.6 0.0
 
Date/Time
EST
Temp
°C
App
Temp
°C
Dew
Point
°C
Rel
Hum
%
Delta-T
°C
Wind Press
QNH
hPa
Press
MSL
hPa
Rain since
9am
mm
Dir  Spd
km/h
Gust
km/h
Spd
kts
Gust
kts
29/11:39pm 11.7 5.4 5.8 67 2.7 NNW 28 50 15 27 1018.7 1018.7 0.0
29/11:30pm 11.7 6.2 5.8 67 2.7 NNW 24 39 13 21 1018.6 1018.6 0.0
29/11:00pm 11.8 6.2 5.4 65 2.9 NNW 24 43 13 23 1018.7 1018.7 0.0
29/10:30pm 11.5 6.7 5.4 66 2.8 NNW 20 30 11 16 1018.5 1018.5 0.0
29/10:00pm 11.2 6.6 5.7 69 2.5 N 19 26 10 14 1018.6 1018.6 0.0
29/09:30pm 11.2 7.0 5.5 68 2.6 N 17 24 9 13 1018.9 1018.9 0.0
29/09:00pm 11.3 6.2 6.0 70 2.5 N 22 28 12 15 1019.1 1019.2 0.0
29/08:30pm 10.4 6.3 6.0 74 2.0 NNE 17 20 9 11 1019.4 1019.5 0.0
29/08:00pm 10.5 5.9 5.7 72 2.2 N 19 24 10 13 1020.0 1020.1 0.0
29/07:30pm 10.7 6.5 5.7 71 2.3 N 17 24 9 13 1020.4 1020.5 0.0
29/07:00pm 11.1 6.6 6.3 72 2.2 N 19 30 10 16 1020.5 1020.6 0.0
29/06:30pm 10.9 6.3 5.7 70 2.4 N 19 24 10 13 1020.7 1020.8 0.0
29/06:00pm 11.2 6.5 5.3 67 2.7 N 19 26 10 14 1021.0 1021.1 0.0
29/05:30pm 12.3 6.3 5.5 63 3.2 N 26 37 14 20 1021.2 1021.3 0.0
29/05:00pm 13.1 6.7 5.0 58 3.7 N 28 39 15 21 1021.4 1021.5 0.0
29/04:49pm 13.5 6.7 5.2 57 3.9 N 30 48 16 26 1021.5 1021.6 0.0
29/04:30pm 13.7 6.5 5.1 56 4.0 NNW 32 44 17 24 1021.7 1021.8 0.0
29/04:00pm 14.2 7.9 5.8 57 4.0 N 28 41 15 22 1022.1 1022.2 0.0
29/03:30pm 14.6 8.5 6.4 58 4.0 N 28 39 15 21 1022.2 1022.3 0.0
29/03:05pm 14.4 7.2 6.0 57 4.0 N 33 52 18 28 1022.4 1022.5 0.0
29/03:00pm 14.5 7.0 6.1 57 4.0 N 35 52 19 28 1022.2 1022.3 0.0
29/02:30pm 14.5 8.9 7.1 61 3.6 N 26 35 14 19 1022.6 1022.7 0.0
29/02:00pm 14.8 9.1 6.9 59 3.8 N 26 37 14 20 1022.9 1023.0 0.0
29/01:30pm 14.8 10.4 7.6 62 3.6 N 20 32 11 17 1023.6 1023.7 0.0
29/01:00pm 14.6 9.8 7.4 62 3.5 N 22 30 12 16 1024.2 1024.3 0.0
29/12:30pm 14.8 10.8 8.3 65 3.3 N 19 30 10 16 1024.8 1024.9 0.0
29/12:00pm 14.3 9.7 8.0 66 3.1 N 22 28 12 15 1025.3 1025.4 0.0
29/11:30am 14.2 9.6 8.2 67 3.0 N 22 28 12 15 1025.9 1026.0 0.0
29/11:00am 13.7 9.5 8.3 70 2.7 N 20 26 11 14 1026.4 1026.5 0.0
29/10:30am 13.3 9.1 8.2 71 2.5 N 20 26 11 14 1026.7 1026.8 0.0
29/10:00am 12.6 8.6 8.1 74 2.2 N 19 28 10 15 1026.6 1026.7 0.0
29/09:30am 11.6 7.6 8.3 80 1.6 N 19 26 10 14 1026.5 1026.6 0.0
29/09:00am 10.8 7.2 8.4 85 1.2 N 17 22 9 12 1026.5 1026.6 0.0
29/08:30am 9.9 5.8 7.8 87 1.0 N 19 24 10 13 1026.2 1026.3 0.0
29/08:00am 9.5 5.1 7.6 88 0.9 N 20 28 11 15 1026.1 1026.2 0.0
29/07:30am 9.4 4.6 7.5 88 0.9 N 22 30 12 16 1026.0 1026.1 0.0
29/07:00am 9.2 4.4 7.2 87 0.9 N 22 28 12 15 1025.9 1026.0 0.0
29/06:30am 9.3 5.1 7.3 87 0.9 N 19 24 10 13 1025.8 1025.9 0.0
29/06:00am 9.7 5.5 7.5 86 1.0 N 19 22 10 12 1025.6 1025.7 0.0
29/05:30am 9.8 5.7 7.7 87 1.0 N 19 26 10 14 1025.5 1025.6 0.0
29/05:00am 9.7 5.6 7.8 88 0.9 N 19 24 10 13 1025.3 1025.4 0.0
29/04:30am 9.9 5.6 7.8 87 1.0 N 20 28 11 15 1025.3 1025.4 0.0
29/04:00am 9.9 5.6 8.0 88 0.9 N 20 24 11 13 1025.4 1025.5 0.0
29/03:30am 9.9 5.6 8.0 88 0.9 N 20 26 11 14 1025.5 1025.6 0.0
29/03:00am 10.1 6.0 8.0 87 1.0 N 19 26 10 14 1025.4 1025.5 0.0
29/02:30am 10.5 6.3 8.3 86 1.1 N 20 26 11 14 1025.4 1025.5 0.0
29/02:00am 10.7 6.7 8.1 84 1.3 N 19 26 10 14 1025.5 1025.6 0.0
29/01:30am 11.1 7.1 8.3 83 1.4 N 19 24 10 13 1025.5 1025.6 0.0
29/01:00am 11.3 7.2 8.5 83 1.4 N 20 28 11 15 1025.7 1025.8 0.0
29/12:30am 11.2 7.3 8.6 84 1.3 N 19 26 10 14 1025.7 1025.8 0.0
29/12:00am 11.0 7.0 8.4 84 1.3 N 19 26 10 14 1025.8 1025.9 0.0
 
Date/Time
EST
Temp
°C
App
Temp
°C
Dew
Point
°C
Rel
Hum
%
Delta-T
°C
Wind Press
QNH
hPa
Press
MSL
hPa
Rain since
9am
mm
Dir  Spd
km/h
Gust
km/h
Spd
kts
Gust
kts
28/11:30pm 11.1 6.6 8.5 84 1.3 N 22 28 12 15 1025.9 1026.0 0.0
28/11:00pm 11.0 6.5 8.6 85 1.2 N 22 30 12 16 1025.9 1026.0 0.0
28/10:30pm 11.0 6.1 8.6 85 1.2 N 24 30 13 16 1025.9 1026.0 0.0
28/10:00pm 11.0 6.5 8.4 84 1.3 N 22 30 12 16 1025.8 1025.9 0.0
28/09:30pm 11.0 6.8 8.2 83 1.4 N 20 24 11 13 1025.9 1026.0 0.0
28/09:00pm 10.9 6.3 8.0 82 1.4 N 22 32 12 17 1025.7 1025.8 0.0
28/08:30pm 11.2 7.0 7.5 78 1.8 N 19 24 10 13 1025.6 1025.7 0.0
28/08:00pm 11.4 7.0 7.5 77 1.9 N 20 26 11 14 1025.5 1025.6 0.0
28/07:30pm 11.4 7.2 7.5 77 1.9 N 19 26 10 14 1025.4 1025.5 0.0
28/07:00pm 11.4 7.0 7.5 77 1.9 N 20 26 11 14 1025.0 1025.1 0.0
28/06:30pm 11.6 7.4 7.5 76 2.0 N 19 24 10 13 1025.0 1025.1 0.0
28/06:00pm 12.3 8.2 8.0 75 2.1 NNW 19 24 10 13 1024.6 1024.7 0.0
28/05:30pm 12.4 8.2 8.1 75 2.1 N 20 30 11 16 1024.1 1024.2 0.0
28/05:00pm 12.7 8.7 8.2 74 2.2 N 19 26 10 14 1023.8 1023.9 0.0
28/04:30pm 13.8 10.2 8.4 70 2.7 N 17 22 9 12 1023.7 1023.8 0.0
28/04:00pm 14.8 12.0 8.5 66 3.2 NW 13 17 7 9 1023.6 1023.7 0.0
28/03:30pm 14.4 10.5 8.8 69 2.8 N 19 24 10 13 1023.5 1023.6 0.0
28/03:00pm 15.2 11.8 9.1 67 3.1 N 17 20 9 11 1023.2 1023.3 0.0
28/02:30pm 14.7 11.9 8.4 66 3.2 NNW 13 17 7 9 1023.2 1023.3 0.0
28/02:00pm 14.4 10.7 8.1 66 3.1 N 17 22 9 12 1023.0 1023.1 0.0
28/01:30pm 14.6 11.0 8.3 66 3.2 N 17 22 9 12 1023.2 1023.3 0.0
28/01:00pm 14.4 10.7 7.9 65 3.2 N 17 24 9 13 1023.3 1023.4 0.0
28/12:30pm 14.8 10.6 8.1 64 3.4 NNW 20 26 11 14 1023.3 1023.4 0.0
28/12:00pm 14.4 10.0 7.2 62 3.5 NNW 20 28 11 15 1023.5 1023.6 0.0
28/11:30am 14.4 10.0 7.2 62 3.5 NNW 20 30 11 16 1023.7 1023.8 0.0
28/11:00am 13.2 8.7 6.8 65 3.1 NNW 20 30 11 16 1023.7 1023.8 0.0
28/10:30am 12.4 7.8 6.5 67 2.8 NNW 20 28 11 15 1023.9 1024.0 0.0
28/10:00am 11.5 7.1 6.6 72 2.3 N 19 24 10 13 1023.7 1023.8 0.0
28/09:30am 10.6 6.0 6.4 75 2.0 N 20 28 11 15 1023.6 1023.7 0.0
28/09:00am 9.9 5.4 6.1 77 1.7 N 19 28 10 15 1023.2 1023.3 0.2
28/08:30am 8.4 3.6 5.7 83 1.2 N 20 26 11 14 1023.1 1023.2 0.2
28/08:00am 8.1 3.8 5.2 82 1.3 N 17 22 9 12 1023.0 1023.1 0.2
28/07:30am 8.0 4.0 5.1 82 1.3 N 15 19 8 10 1022.8 1022.9 0.2
28/07:00am 8.0 3.7 5.1 82 1.3 N 17 22 9 12 1022.6 1022.7 0.2
28/06:30am 8.0 3.7 5.1 82 1.3 N 17 22 9 12 1022.2 1022.3 0.2
28/06:00am 7.9 3.0 5.0 82 1.3 N 20 26 11 14 1021.9 1022.0 0.2
28/05:30am 7.7 2.7 4.8 82 1.3 N 20 28 11 15 1021.5 1021.6 0.2
28/05:00am 7.4 2.4 4.7 83 1.2 N 20 26 11 14 1021.3 1021.4 0.2
28/04:30am 7.0 2.1 4.3 83 1.2 N 19 24 10 13 1021.2 1021.3 0.2
28/04:00am 7.1 2.3 4.4 83 1.2 N 19 24 10 13 1021.2 1021.3 0.2
28/03:30am 6.6 2.1 4.1 84 1.1 N 17 20 9 11 1021.2 1021.3 0.2
28/03:00am 6.6 2.1 4.1 84 1.1 N 17 20 9 11 1021.2 1021.3 0.2
28/02:30am 6.6 2.5 4.1 84 1.1 N 15 19 8 10 1021.3 1021.4 0.2
28/02:00am 7.0 2.6 4.7 85 1.0 N 17 19 9 10 1021.3 1021.4 0.2
28/01:30am 6.4 2.7 4.2 86 0.9 N 13 15 7 8 1021.1 1021.2 0.2
28/01:00am 7.0 3.4 5.2 88 0.8 N 13 15 7 8 1021.1 1021.2 0.2
28/12:30am 6.8 3.2 5.1 89 0.7 N 13 15 7 8 1021.1 1021.2 0.2
28/12:00am 6.8 3.6 5.3 90 0.7 N 11 15 6 8 1021.1 1021.2 0.2
 
Date/Time
EST
Temp
°C
App
Temp
°C
Dew
Point
°C
Rel
Hum
%
Delta-T
°C
Wind Press
QNH
hPa
Press
MSL
hPa
Rain since
9am
mm
Dir  Spd
km/h
Gust
km/h
Spd
kts
Gust
kts
27/11:30pm 7.6 4.3 6.2 91 0.6 N 13 15 7 8 1021.1 1021.2 0.2
27/11:00pm 7.1 3.7 5.9 92 0.5 N 13 15 7 8 1021.1 1021.2 0.2
27/10:30pm 7.6 3.5 6.4 92 0.5 N 17 19 9 10 1021.0 1021.1 0.0
27/10:00pm 7.9 4.7 7.0 94 0.4 NNW 13 15 7 8 1020.8 1020.9 0.0
27/09:30pm 7.6 4.4 7.0 96 0.3 N 13 17 7 9 1020.6 1020.7 0.0
27/09:00pm 7.4 4.2 6.8 96 0.3 N 13 17 7 9 1020.4 1020.5 0.0
27/08:30pm 7.0 4.4 6.3 95 0.3 N 9 11 5 6 1020.3 1020.4 0.0
27/08:00pm 6.8 3.8 5.9 94 0.4 N 11 13 6 7 1020.2 1020.3 0.0
27/07:30pm 7.9 5.1 7.0 94 0.4 N 11 13 6 7 1019.9 1020.0 0.0
27/07:00pm 8.2 5.4 7.1 93 0.5 N 11 15 6 8 1019.6 1019.7 0.0
27/06:30pm 9.0 6.0 7.8 92 0.6 N 13 15 7 8 1019.2 1019.3 0.0
27/06:00pm 9.5 7.0 8.1 91 0.7 N 11 13 6 7 1019.1 1019.2 0.0
27/05:30pm 9.5 6.9 7.8 89 0.8 N 11 15 6 8 1018.7 1018.7 0.0
27/05:00pm 10.2 7.7 8.0 86 1.1 NNW 11 15 6 8 1018.4 1018.4 0.0
27/04:30pm 10.5 7.6 8.1 85 1.2 N 13 17 7 9 1018.1 1018.1 0.0
27/04:00pm 10.7 7.7 7.6 81 1.5 N 13 17 7 9 1018.0 1018.0 0.0
27/03:30pm 10.9 7.9 7.8 81 1.5 NNW 13 17 7 9 1017.8 1017.8 0.0
27/03:01pm 10.7 8.5 7.8 82 1.4 NNW 9 13 5 7 1017.7 1017.7 0.0
27/03:00pm 10.6 8.4 7.7 82 1.4 NNW 9 13 5 7 1017.7 1017.7 0.0
27/02:30pm 10.1 7.9 7.7 85 1.2 NNW 9 13 5 7 1017.5 1017.5 0.0
27/02:13pm 9.7 6.6 7.1 84 1.2 NW 13 19 7 10 1017.4 1017.4 0.0
27/02:00pm 10.0 7.2 6.9 81 1.5 NNW 11 17 6 9 1017.4 1017.4 0.0
27/01:30pm 9.9 6.3 6.8 81 1.5 NNW 15 20 8 11 1017.4 1017.4 0.0
27/01:00pm 9.9 6.4 7.2 83 1.3 N 15 20 8 11 1017.3 1017.3 0.0
27/12:30pm 9.6 5.7 6.9 83 1.3 N 17 20 9 11 1017.4 1017.4 0.0
27/12:00pm 9.4 5.0 6.7 83 1.3 N 19 26 10 14 1017.5 1017.5 0.0
27/11:30am 9.1 4.7 6.4 83 1.2 N 19 22 10 12 1017.7 1017.7 0.0
27/11:00am 9.1 5.0 6.0 81 1.4 N 17 26 9 14 1017.8 1017.8 0.0
27/10:30am 8.5 4.3 5.6 82 1.3 N 17 24 9 13 1018.0 1018.0 0.0
27/10:00am 8.1 3.3 5.6 84 1.1 N 20 30 11 16 1017.7 1017.7 0.0

Other Formats:

Comma delimited format used in spreadsheet applications
http://www.bom.gov.au/fwo/IDV60801/IDV60801.94870.axf

JavaScript Object Notation format (JSON) in row-major order
http://www.bom.gov.au/fwo/IDV60801/IDV60801.94870.json